sensor_id;sensor_type;location;lat;lon;timestamp;P1;durP1;ratioP1;P2;durP2;ratioP2
1276;SDS011;631;51.024;13.826;2022-10-16T00:01:19;17.70;;;15.80;;
1276;SDS011;631;51.024;13.826;2022-10-16T00:03:46;16.47;;;14.77;;
1276;SDS011;631;51.024;13.826;2022-10-16T00:06:13;16.53;;;14.90;;
1276;SDS011;631;51.024;13.826;2022-10-16T00:08:39;17.67;;;15.77;;
1276;SDS011;631;51.024;13.826;2022-10-16T00:11:06;17.10;;;15.30;;
1276;SDS011;631;51.024;13.826;2022-10-16T00:13:34;17.70;;;14.77;;
1276;SDS011;631;51.024;13.826;2022-10-16T00:16:02;17.00;;;15.30;;
1276;SDS011;631;51.024;13.826;2022-10-16T00:18:28;16.80;;;14.50;;
1276;SDS011;631;51.024;13.826;2022-10-16T00:20:55;16.07;;;14.37;;
1276;SDS011;631;51.024;13.826;2022-10-16T00:23:26;18.00;;;14.70;;
1276;SDS011;631;51.024;13.826;2022-10-16T00:25:59;17.17;;;15.47;;
1276;SDS011;631;51.024;13.826;2022-10-16T00:28:26;19.60;;;14.80;;
1276;SDS011;631;51.024;13.826;2022-10-16T00:30:52;17.47;;;15.20;;
1276;SDS011;631;51.024;13.826;2022-10-16T00:33:18;17.03;;;15.23;;
1276;SDS011;631;51.024;13.826;2022-10-16T00:35:44;16.43;;;14.73;;
1276;SDS011;631;51.024;13.826;2022-10-16T00:38:09;15.67;;;14.03;;
1276;SDS011;631;51.024;13.826;2022-10-16T00:40:35;16.50;;;14.80;;
1276;SDS011;631;51.024;13.826;2022-10-16T00:43:01;16.13;;;14.10;;
1276;SDS011;631;51.024;13.826;2022-10-16T00:45:26;16.53;;;14.73;;
1276;SDS011;631;51.024;13.826;2022-10-16T00:47:52;15.70;;;14.10;;
1276;SDS011;631;51.024;13.826;2022-10-16T00:50:28;16.57;;;14.90;;
1276;SDS011;631;51.024;13.826;2022-10-16T00:52:54;16.70;;;14.30;;
1276;SDS011;631;51.024;13.826;2022-10-16T00:55:21;15.57;;;13.97;;
1276;SDS011;631;51.024;13.826;2022-10-16T00:57:47;16.97;;;15.17;;
1276;SDS011;631;51.024;13.826;2022-10-16T01:00:16;15.83;;;14.23;;
1276;SDS011;631;51.024;13.826;2022-10-16T01:02:44;15.53;;;14.03;;
1276;SDS011;631;51.024;13.826;2022-10-16T01:05:16;15.47;;;13.87;;
1276;SDS011;631;51.024;13.826;2022-10-16T01:13:10;14.83;;;13.30;;
1276;SDS011;631;51.024;13.826;2022-10-16T01:15:42;14.97;;;13.40;;
1276;SDS011;631;51.024;13.826;2022-10-16T01:21:06;16.77;;;14.97;;
1276;SDS011;631;51.024;13.826;2022-10-16T01:28:57;16.90;;;15.20;;
1276;SDS011;631;51.024;13.826;2022-10-16T01:31:32;16.37;;;14.77;;
1276;SDS011;631;51.024;13.826;2022-10-16T01:34:05;17.87;;;15.97;;
1276;SDS011;631;51.024;13.826;2022-10-16T01:36:42;16.10;;;14.50;;
1276;SDS011;631;51.024;13.826;2022-10-16T01:39:12;17.63;;;14.87;;
1276;SDS011;631;51.024;13.826;2022-10-16T01:41:41;17.53;;;15.70;;
1276;SDS011;631;51.024;13.826;2022-10-16T01:44:19;17.10;;;15.40;;
1276;SDS011;631;51.024;13.826;2022-10-16T01:46:57;18.40;;;16.53;;
1276;SDS011;631;51.024;13.826;2022-10-16T01:49:25;17.27;;;15.50;;
1276;SDS011;631;51.024;13.826;2022-10-16T01:51:56;18.97;;;16.47;;
1276;SDS011;631;51.024;13.826;2022-10-16T01:54:28;19.23;;;17.33;;
1276;SDS011;631;51.024;13.826;2022-10-16T01:56:56;18.50;;;16.50;;
1276;SDS011;631;51.024;13.826;2022-10-16T01:59:25;17.90;;;16.03;;
1276;SDS011;631;51.024;13.826;2022-10-16T02:01:52;18.43;;;16.63;;
1276;SDS011;631;51.024;13.826;2022-10-16T02:04:24;18.93;;;16.97;;
1276;SDS011;631;51.024;13.826;2022-10-16T02:10:06;18.43;;;16.03;;
1276;SDS011;631;51.024;13.826;2022-10-16T02:12:32;18.67;;;16.67;;
1276;SDS011;631;51.024;13.826;2022-10-16T02:15:01;18.73;;;16.83;;
1276;SDS011;631;51.024;13.826;2022-10-16T02:17:27;20.03;;;16.63;;
1276;SDS011;631;51.024;13.826;2022-10-16T02:19:54;21.60;;;17.30;;
1276;SDS011;631;51.024;13.826;2022-10-16T02:22:26;17.33;;;15.67;;
1276;SDS011;631;51.024;13.826;2022-10-16T02:25:02;17.57;;;15.77;;
1276;SDS011;631;51.024;13.826;2022-10-16T02:27:34;17.37;;;14.97;;
1276;SDS011;631;51.024;13.826;2022-10-16T02:30:07;18.00;;;16.10;;
1276;SDS011;631;51.024;13.826;2022-10-16T02:32:47;18.07;;;16.23;;
1276;SDS011;631;51.024;13.826;2022-10-16T02:35:15;18.80;;;16.90;;
1276;SDS011;631;51.024;13.826;2022-10-16T02:37:43;18.30;;;16.37;;
1276;SDS011;631;51.024;13.826;2022-10-16T02:40:10;16.93;;;14.73;;
1276;SDS011;631;51.024;13.826;2022-10-16T02:42:37;18.03;;;16.30;;
1276;SDS011;631;51.024;13.826;2022-10-16T02:45:04;18.50;;;15.37;;
1276;SDS011;631;51.024;13.826;2022-10-16T02:47:31;18.40;;;15.47;;
1276;SDS011;631;51.024;13.826;2022-10-16T02:49:56;18.03;;;16.30;;
1276;SDS011;631;51.024;13.826;2022-10-16T02:52:22;17.30;;;15.50;;
1276;SDS011;631;51.024;13.826;2022-10-16T02:54:47;16.67;;;14.97;;
1276;SDS011;631;51.024;13.826;2022-10-16T02:57:13;16.20;;;14.50;;
1276;SDS011;631;51.024;13.826;2022-10-16T02:59:39;16.20;;;14.60;;
1276;SDS011;631;51.024;13.826;2022-10-16T03:02:04;16.90;;;15.13;;
1276;SDS011;631;51.024;13.826;2022-10-16T03:04:30;17.60;;;15.90;;
1276;SDS011;631;51.024;13.826;2022-10-16T03:06:55;15.47;;;13.83;;
1276;SDS011;631;51.024;13.826;2022-10-16T03:09:21;16.10;;;14.40;;
1276;SDS011;631;51.024;13.826;2022-10-16T03:11:47;16.00;;;14.40;;
1276;SDS011;631;51.024;13.826;2022-10-16T03:14:12;15.97;;;14.40;;
1276;SDS011;631;51.024;13.826;2022-10-16T03:16:38;16.03;;;14.50;;
1276;SDS011;631;51.024;13.826;2022-10-16T03:19:03;18.37;;;15.27;;
1276;SDS011;631;51.024;13.826;2022-10-16T03:21:29;16.77;;;15.07;;
1276;SDS011;631;51.024;13.826;2022-10-16T03:23:54;16.30;;;14.60;;
1276;SDS011;631;51.024;13.826;2022-10-16T03:26:20;16.37;;;14.67;;
1276;SDS011;631;51.024;13.826;2022-10-16T03:28:46;16.27;;;14.20;;
1276;SDS011;631;51.024;13.826;2022-10-16T03:31:11;16.17;;;14.53;;
1276;SDS011;631;51.024;13.826;2022-10-16T03:33:37;16.03;;;14.43;;
1276;SDS011;631;51.024;13.826;2022-10-16T03:36:02;17.20;;;15.60;;
1276;SDS011;631;51.024;13.826;2022-10-16T03:38:28;16.33;;;14.63;;
1276;SDS011;631;51.024;13.826;2022-10-16T03:40:54;16.60;;;15.00;;
1276;SDS011;631;51.024;13.826;2022-10-16T03:43:19;17.57;;;15.87;;
1276;SDS011;631;51.024;13.826;2022-10-16T03:45:45;20.10;;;16.23;;
1276;SDS011;631;51.024;13.826;2022-10-16T03:48:10;17.80;;;16.10;;
1276;SDS011;631;51.024;13.826;2022-10-16T03:50:36;17.53;;;15.53;;
1276;SDS011;631;51.024;13.826;2022-10-16T03:53:02;16.47;;;14.80;;
1276;SDS011;631;51.024;13.826;2022-10-16T03:55:28;17.00;;;15.30;;
1276;SDS011;631;51.024;13.826;2022-10-16T03:57:53;18.13;;;16.33;;
1276;SDS011;631;51.024;13.826;2022-10-16T04:00:19;18.43;;;16.63;;
1276;SDS011;631;51.024;13.826;2022-10-16T04:02:44;17.77;;;16.17;;
1276;SDS011;631;51.024;13.826;2022-10-16T04:05:11;17.77;;;15.97;;
1276;SDS011;631;51.024;13.826;2022-10-16T04:07:36;17.87;;;16.10;;
1276;SDS011;631;51.024;13.826;2022-10-16T04:10:02;18.20;;;16.40;;
1276;SDS011;631;51.024;13.826;2022-10-16T04:12:30;17.77;;;16.03;;
1276;SDS011;631;51.024;13.826;2022-10-16T04:14:55;18.03;;;16.23;;
1276;SDS011;631;51.024;13.826;2022-10-16T04:17:21;17.80;;;16.00;;
1276;SDS011;631;51.024;13.826;2022-10-16T04:19:46;17.90;;;16.20;;
1276;SDS011;631;51.024;13.826;2022-10-16T04:22:12;17.80;;;16.00;;
1276;SDS011;631;51.024;13.826;2022-10-16T04:24:37;18.17;;;16.27;;
1276;SDS011;631;51.024;13.826;2022-10-16T04:27:03;17.90;;;16.10;;
1276;SDS011;631;51.024;13.826;2022-10-16T04:29:29;17.60;;;15.80;;
1276;SDS011;631;51.024;13.826;2022-10-16T04:31:54;19.00;;;17.00;;
1276;SDS011;631;51.024;13.826;2022-10-16T04:34:20;16.70;;;15.00;;
1276;SDS011;631;51.024;13.826;2022-10-16T04:36:48;17.37;;;15.67;;
1276;SDS011;631;51.024;13.826;2022-10-16T04:39:15;17.13;;;15.40;;
1276;SDS011;631;51.024;13.826;2022-10-16T04:41:41;17.10;;;15.40;;
1276;SDS011;631;51.024;13.826;2022-10-16T04:44:06;17.17;;;15.47;;
1276;SDS011;631;51.024;13.826;2022-10-16T04:46:32;17.30;;;15.60;;
1276;SDS011;631;51.024;13.826;2022-10-16T04:48:58;16.40;;;14.90;;
1276;SDS011;631;51.024;13.826;2022-10-16T04:51:23;15.90;;;14.30;;
1276;SDS011;631;51.024;13.826;2022-10-16T04:53:50;17.73;;;15.93;;
1276;SDS011;631;51.024;13.826;2022-10-16T04:56:16;17.90;;;16.10;;
1276;SDS011;631;51.024;13.826;2022-10-16T04:58:41;15.90;;;14.30;;
1276;SDS011;631;51.024;13.826;2022-10-16T05:01:07;17.23;;;15.43;;
1276;SDS011;631;51.024;13.826;2022-10-16T05:03:32;16.37;;;14.77;;
1276;SDS011;631;51.024;13.826;2022-10-16T05:05:58;15.47;;;13.97;;
1276;SDS011;631;51.024;13.826;2022-10-16T05:08:24;15.60;;;14.10;;
1276;SDS011;631;51.024;13.826;2022-10-16T05:10:50;15.63;;;13.90;;
1276;SDS011;631;51.024;13.826;2022-10-16T05:13:15;15.57;;;14.07;;
1276;SDS011;631;51.024;13.826;2022-10-16T05:15:41;15.73;;;14.17;;
1276;SDS011;631;51.024;13.826;2022-10-16T05:18:07;15.23;;;13.63;;
1276;SDS011;631;51.024;13.826;2022-10-16T05:20:33;15.57;;;14.03;;
1276;SDS011;631;51.024;13.826;2022-10-16T05:22:59;14.70;;;13.20;;
1276;SDS011;631;51.024;13.826;2022-10-16T05:25:25;16.50;;;14.43;;
1276;SDS011;631;51.024;13.826;2022-10-16T05:27:50;14.30;;;13.00;;
1276;SDS011;631;51.024;13.826;2022-10-16T05:30:17;14.50;;;13.00;;
1276;SDS011;631;51.024;13.826;2022-10-16T05:32:47;15.10;;;13.60;;
1276;SDS011;631;51.024;13.826;2022-10-16T05:35:13;15.77;;;14.27;;
1276;SDS011;631;51.024;13.826;2022-10-16T05:37:40;15.10;;;13.67;;
1276;SDS011;631;51.024;13.826;2022-10-16T05:40:05;15.90;;;14.10;;
1276;SDS011;631;51.024;13.826;2022-10-16T05:42:31;15.80;;;14.30;;
1276;SDS011;631;51.024;13.826;2022-10-16T05:44:57;15.37;;;13.87;;
1276;SDS011;631;51.024;13.826;2022-10-16T05:47:22;16.00;;;14.43;;
1276;SDS011;631;51.024;13.826;2022-10-16T05:49:48;16.57;;;14.87;;
1276;SDS011;631;51.024;13.826;2022-10-16T05:52:14;16.13;;;14.63;;
1276;SDS011;631;51.024;13.826;2022-10-16T05:54:39;17.27;;;15.57;;
1276;SDS011;631;51.024;13.826;2022-10-16T05:57:05;17.90;;;15.60;;
1276;SDS011;631;51.024;13.826;2022-10-16T05:59:30;19.30;;;16.47;;
1276;SDS011;631;51.024;13.826;2022-10-16T06:01:56;17.50;;;15.80;;
1276;SDS011;631;51.024;13.826;2022-10-16T06:04:22;17.30;;;15.60;;
1276;SDS011;631;51.024;13.826;2022-10-16T06:06:48;18.03;;;16.10;;
1276;SDS011;631;51.024;13.826;2022-10-16T06:09:13;19.07;;;16.43;;
1276;SDS011;631;51.024;13.826;2022-10-16T06:11:39;18.03;;;16.13;;
1276;SDS011;631;51.024;13.826;2022-10-16T06:14:05;18.13;;;16.33;;
1276;SDS011;631;51.024;13.826;2022-10-16T06:16:34;19.10;;;17.10;;
1276;SDS011;631;51.024;13.826;2022-10-16T06:19:01;18.83;;;16.93;;
1276;SDS011;631;51.024;13.826;2022-10-16T06:21:27;18.90;;;16.93;;
1276;SDS011;631;51.024;13.826;2022-10-16T06:23:54;19.37;;;17.30;;
1276;SDS011;631;51.024;13.826;2022-10-16T06:26:21;19.90;;;17.80;;
1276;SDS011;631;51.024;13.826;2022-10-16T06:28:49;19.97;;;17.87;;
1276;SDS011;631;51.024;13.826;2022-10-16T06:31:15;19.67;;;17.77;;
1276;SDS011;631;51.024;13.826;2022-10-16T06:33:41;19.00;;;17.00;;
1276;SDS011;631;51.024;13.826;2022-10-16T06:36:11;20.73;;;17.77;;
1276;SDS011;631;51.024;13.826;2022-10-16T06:38:39;19.47;;;17.53;;
1276;SDS011;631;51.024;13.826;2022-10-16T06:41:06;17.97;;;16.07;;
1276;SDS011;631;51.024;13.826;2022-10-16T06:43:32;19.63;;;17.70;;
1276;SDS011;631;51.024;13.826;2022-10-16T06:46:00;18.87;;;16.90;;
1276;SDS011;631;51.024;13.826;2022-10-16T06:48:26;18.57;;;16.20;;
1276;SDS011;631;51.024;13.826;2022-10-16T06:53:22;18.43;;;16.60;;
1276;SDS011;631;51.024;13.826;2022-10-16T06:55:47;19.10;;;17.20;;
1276;SDS011;631;51.024;13.826;2022-10-16T06:58:13;19.00;;;17.10;;
1276;SDS011;631;51.024;13.826;2022-10-16T07:00:39;18.07;;;16.37;;
1276;SDS011;631;51.024;13.826;2022-10-16T07:03:04;18.93;;;17.10;;
1276;SDS011;631;51.024;13.826;2022-10-16T07:05:30;18.33;;;16.53;;
1276;SDS011;631;51.024;13.826;2022-10-16T07:07:55;17.50;;;15.80;;
1276;SDS011;631;51.024;13.826;2022-10-16T07:10:21;17.60;;;16.00;;
1276;SDS011;631;51.024;13.826;2022-10-16T07:12:49;17.90;;;16.20;;
1276;SDS011;631;51.024;13.826;2022-10-16T07:15:14;18.87;;;17.07;;
1276;SDS011;631;51.024;13.826;2022-10-16T07:17:40;18.20;;;16.40;;
1276;SDS011;631;51.024;13.826;2022-10-16T07:20:06;18.70;;;16.90;;
1276;SDS011;631;51.024;13.826;2022-10-16T07:22:32;18.13;;;16.43;;
1276;SDS011;631;51.024;13.826;2022-10-16T07:24:57;18.33;;;16.63;;
1276;SDS011;631;51.024;13.826;2022-10-16T07:27:23;17.17;;;15.57;;
1276;SDS011;631;51.024;13.826;2022-10-16T07:29:49;17.43;;;15.87;;
1276;SDS011;631;51.024;13.826;2022-10-16T07:32:15;16.90;;;15.30;;
1276;SDS011;631;51.024;13.826;2022-10-16T07:34:40;17.30;;;15.77;;
1276;SDS011;631;51.024;13.826;2022-10-16T07:37:07;16.70;;;15.10;;
1276;SDS011;631;51.024;13.826;2022-10-16T07:39:32;17.57;;;15.73;;
1276;SDS011;631;51.024;13.826;2022-10-16T07:41:58;18.23;;;16.33;;
1276;SDS011;631;51.024;13.826;2022-10-16T07:44:24;17.60;;;15.80;;
1276;SDS011;631;51.024;13.826;2022-10-16T07:46:49;17.50;;;15.90;;
1276;SDS011;631;51.024;13.826;2022-10-16T07:49:15;16.53;;;14.73;;
1276;SDS011;631;51.024;13.826;2022-10-16T07:51:40;18.27;;;16.57;;
1276;SDS011;631;51.024;13.826;2022-10-16T07:54:07;16.80;;;15.30;;
1276;SDS011;631;51.024;13.826;2022-10-16T07:56:36;16.10;;;14.70;;
1276;SDS011;631;51.024;13.826;2022-10-16T07:59:01;18.53;;;16.63;;
1276;SDS011;631;51.024;13.826;2022-10-16T08:01:27;16.87;;;15.10;;
1276;SDS011;631;51.024;13.826;2022-10-16T08:03:52;16.30;;;14.80;;
1276;SDS011;631;51.024;13.826;2022-10-16T08:06:18;14.73;;;13.40;;
1276;SDS011;631;51.024;13.826;2022-10-16T08:08:45;15.40;;;14.10;;
1276;SDS011;631;51.024;13.826;2022-10-16T08:11:11;15.67;;;14.07;;
1276;SDS011;631;51.024;13.826;2022-10-16T08:13:36;16.27;;;14.80;;
1276;SDS011;631;51.024;13.826;2022-10-16T08:16:02;15.17;;;13.87;;
1276;SDS011;631;51.024;13.826;2022-10-16T08:18:32;14.87;;;13.57;;
1276;SDS011;631;51.024;13.826;2022-10-16T08:20:59;13.57;;;12.37;;
1276;SDS011;631;51.024;13.826;2022-10-16T08:23:25;13.50;;;12.30;;
1276;SDS011;631;51.024;13.826;2022-10-16T08:25:52;12.77;;;11.67;;
1276;SDS011;631;51.024;13.826;2022-10-16T08:28:21;12.40;;;11.40;;
1276;SDS011;631;51.024;13.826;2022-10-16T08:30:48;13.10;;;12.00;;
1276;SDS011;631;51.024;13.826;2022-10-16T08:33:13;11.60;;;10.57;;
1276;SDS011;631;51.024;13.826;2022-10-16T08:35:39;11.80;;;10.80;;
1276;SDS011;631;51.024;13.826;2022-10-16T08:38:05;12.80;;;11.60;;
1276;SDS011;631;51.024;13.826;2022-10-16T08:40:32;13.73;;;12.43;;
1276;SDS011;631;51.024;13.826;2022-10-16T08:46:04;12.73;;;11.70;;
1276;SDS011;631;51.024;13.826;2022-10-16T08:48:53;12.90;;;11.90;;
1276;SDS011;631;51.024;13.826;2022-10-16T08:51:24;14.13;;;12.93;;
1276;SDS011;631;51.024;13.826;2022-10-16T08:54:01;13.63;;;12.53;;
1276;SDS011;631;51.024;13.826;2022-10-16T08:56:29;13.70;;;12.50;;
1276;SDS011;631;51.024;13.826;2022-10-16T08:58:57;13.27;;;11.93;;
1276;SDS011;631;51.024;13.826;2022-10-16T09:01:24;12.93;;;11.93;;
1276;SDS011;631;51.024;13.826;2022-10-16T09:20:15;14.20;;;13.07;;
1276;SDS011;631;51.024;13.826;2022-10-16T09:22:53;14.20;;;13.20;;
1276;SDS011;631;51.024;13.826;2022-10-16T09:25:29;14.40;;;13.30;;
1276;SDS011;631;51.024;13.826;2022-10-16T09:27:56;14.30;;;13.30;;
1276;SDS011;631;51.024;13.826;2022-10-16T09:30:22;14.87;;;13.67;;
1276;SDS011;631;51.024;13.826;2022-10-16T09:32:51;15.00;;;14.00;;
1276;SDS011;631;51.024;13.826;2022-10-16T09:35:22;15.00;;;13.90;;
1276;SDS011;631;51.024;13.826;2022-10-16T09:37:52;15.93;;;14.83;;
1276;SDS011;631;51.024;13.826;2022-10-16T09:40:24;15.77;;;14.67;;
1276;SDS011;631;51.024;13.826;2022-10-16T09:42:57;15.30;;;14.20;;
1276;SDS011;631;51.024;13.826;2022-10-16T09:45:57;15.93;;;14.77;;
1276;SDS011;631;51.024;13.826;2022-10-16T09:48:23;14.40;;;13.20;;
1276;SDS011;631;51.024;13.826;2022-10-16T09:50:55;15.80;;;14.60;;
1276;SDS011;631;51.024;13.826;2022-10-16T09:53:22;13.83;;;12.83;;
1276;SDS011;631;51.024;13.826;2022-10-16T09:55:48;14.13;;;13.13;;
1276;SDS011;631;51.024;13.826;2022-10-16T09:58:20;14.07;;;13.10;;
1276;SDS011;631;51.024;13.826;2022-10-16T10:00:48;14.17;;;13.07;;
1276;SDS011;631;51.024;13.826;2022-10-16T10:03:36;14.63;;;13.47;;
1276;SDS011;631;51.024;13.826;2022-10-16T10:06:15;12.70;;;11.70;;
1276;SDS011;631;51.024;13.826;2022-10-16T10:08:54;12.87;;;11.97;;
1276;SDS011;631;51.024;13.826;2022-10-16T10:14:22;13.00;;;12.00;;
1276;SDS011;631;51.024;13.826;2022-10-16T10:17:02;12.80;;;11.90;;
1276;SDS011;631;51.024;13.826;2022-10-16T10:35:41;10.10;;;9.40;;
1276;SDS011;631;51.024;13.826;2022-10-16T10:38:20;9.10;;;8.50;;
1276;SDS011;631;51.024;13.826;2022-10-16T10:40:51;9.10;;;8.40;;
1276;SDS011;631;51.024;13.826;2022-10-16T10:49:25;8.07;;;7.50;;
1276;SDS011;631;51.024;13.826;2022-10-16T10:57:22;7.47;;;6.97;;
1276;SDS011;631;51.024;13.826;2022-10-16T10:59:57;7.30;;;6.90;;
1276;SDS011;631;51.024;13.826;2022-10-16T11:07:38;7.13;;;6.53;;
1276;SDS011;631;51.024;13.826;2022-10-16T11:10:14;6.20;;;5.80;;
1276;SDS011;631;51.024;13.826;2022-10-16T11:12:52;4.10;;;3.77;;
1276;SDS011;631;51.024;13.826;2022-10-16T11:15:30;5.17;;;3.90;;
1276;SDS011;631;51.024;13.826;2022-10-16T11:18:05;3.17;;;2.97;;
1276;SDS011;631;51.024;13.826;2022-10-16T11:20:40;3.30;;;3.10;;
1276;SDS011;631;51.024;13.826;2022-10-16T11:26:04;2.47;;;2.37;;
1276;SDS011;631;51.024;13.826;2022-10-16T11:28:41;2.90;;;2.70;;
1276;SDS011;631;51.024;13.826;2022-10-16T11:31:43;2.60;;;2.50;;
1276;SDS011;631;51.024;13.826;2022-10-16T11:34:28;2.53;;;2.43;;
1276;SDS011;631;51.024;13.826;2022-10-16T11:37:27;2.60;;;2.50;;
1276;SDS011;631;51.024;13.826;2022-10-16T11:40:10;2.93;;;2.73;;
1276;SDS011;631;51.024;13.826;2022-10-16T11:42:49;3.20;;;3.00;;
1276;SDS011;631;51.024;13.826;2022-10-16T11:45:42;2.93;;;2.43;;
1276;SDS011;631;51.024;13.826;2022-10-16T11:56:22;3.20;;;3.00;;
1276;SDS011;631;51.024;13.826;2022-10-16T12:01:32;3.03;;;2.83;;
1276;SDS011;631;51.024;13.826;2022-10-16T12:04:22;2.90;;;2.70;;
1276;SDS011;631;51.024;13.826;2022-10-16T12:07:11;2.73;;;2.53;;
1276;SDS011;631;51.024;13.826;2022-10-16T12:09:40;3.60;;;3.37;;
1276;SDS011;631;51.024;13.826;2022-10-16T12:15:27;2.53;;;2.43;;
1276;SDS011;631;51.024;13.826;2022-10-16T12:17:54;2.40;;;2.30;;
1276;SDS011;631;51.024;13.826;2022-10-16T12:22:56;2.63;;;2.53;;
1276;SDS011;631;51.024;13.826;2022-10-16T12:28:06;2.43;;;2.30;;
1276;SDS011;631;51.024;13.826;2022-10-16T12:30:52;3.23;;;3.00;;
1276;SDS011;631;51.024;13.826;2022-10-16T12:33:42;2.93;;;2.63;;
1276;SDS011;631;51.024;13.826;2022-10-16T12:36:28;2.93;;;2.83;;
1276;SDS011;631;51.024;13.826;2022-10-16T12:38:55;2.63;;;2.53;;
1276;SDS011;631;51.024;13.826;2022-10-16T12:41:28;2.53;;;2.43;;
1276;SDS011;631;51.024;13.826;2022-10-16T12:43:59;3.07;;;2.87;;
1276;SDS011;631;51.024;13.826;2022-10-16T12:51:52;2.83;;;2.63;;
1276;SDS011;631;51.024;13.826;2022-10-16T12:54:37;3.10;;;2.90;;
1276;SDS011;631;51.024;13.826;2022-10-16T12:59:57;2.77;;;2.57;;
1276;SDS011;631;51.024;13.826;2022-10-16T13:05:54;2.67;;;2.57;;
1276;SDS011;631;51.024;13.826;2022-10-16T13:08:33;3.43;;;3.23;;
1276;SDS011;631;51.024;13.826;2022-10-16T13:17:29;2.90;;;2.70;;
1276;SDS011;631;51.024;13.826;2022-10-16T13:19:51;3.40;;;3.20;;
1276;SDS011;631;51.024;13.826;2022-10-16T13:22:32;3.10;;;2.90;;
1276;SDS011;631;51.024;13.826;2022-10-16T13:28:14;3.40;;;2.70;;
1276;SDS011;631;51.024;13.826;2022-10-16T13:30:43;2.97;;;2.77;;
1276;SDS011;631;51.024;13.826;2022-10-16T13:35:56;3.00;;;2.80;;
1276;SDS011;631;51.024;13.826;2022-10-16T13:38:23;3.00;;;2.90;;
1276;SDS011;631;51.024;13.826;2022-10-16T13:40:55;2.87;;;2.67;;
1276;SDS011;631;51.024;13.826;2022-10-16T13:43:23;2.93;;;2.73;;
1276;SDS011;631;51.024;13.826;2022-10-16T13:46:14;3.20;;;3.00;;
1276;SDS011;631;51.024;13.826;2022-10-16T13:48:41;3.53;;;3.33;;
1276;SDS011;631;51.024;13.826;2022-10-16T13:51:18;2.93;;;2.73;;
1276;SDS011;631;51.024;13.826;2022-10-16T13:53:44;2.80;;;2.60;;
1276;SDS011;631;51.024;13.826;2022-10-16T13:56:11;3.20;;;3.00;;
1276;SDS011;631;51.024;13.826;2022-10-16T13:58:44;2.97;;;2.77;;
1276;SDS011;631;51.024;13.826;2022-10-16T14:01:15;3.10;;;2.97;;
1276;SDS011;631;51.024;13.826;2022-10-16T14:03:44;3.07;;;2.87;;
1276;SDS011;631;51.024;13.826;2022-10-16T14:06:15;3.33;;;2.90;;
1276;SDS011;631;51.024;13.826;2022-10-16T14:08:44;3.20;;;2.87;;
1276;SDS011;631;51.024;13.826;2022-10-16T14:11:12;3.10;;;2.90;;
1276;SDS011;631;51.024;13.826;2022-10-16T14:13:44;3.80;;;3.50;;
1276;SDS011;631;51.024;13.826;2022-10-16T14:16:32;3.90;;;3.60;;
1276;SDS011;631;51.024;13.826;2022-10-16T14:18:58;3.70;;;3.37;;
1276;SDS011;631;51.024;13.826;2022-10-16T14:21:31;3.53;;;3.10;;
1276;SDS011;631;51.024;13.826;2022-10-16T14:23:57;3.00;;;2.70;;
1276;SDS011;631;51.024;13.826;2022-10-16T14:26:24;3.17;;;2.87;;
1276;SDS011;631;51.024;13.826;2022-10-16T14:29:10;2.90;;;2.70;;
1276;SDS011;631;51.024;13.826;2022-10-16T14:31:40;3.53;;;3.30;;
1276;SDS011;631;51.024;13.826;2022-10-16T14:37:01;4.27;;;3.97;;
1276;SDS011;631;51.024;13.826;2022-10-16T14:39:39;3.93;;;3.63;;
1276;SDS011;631;51.024;13.826;2022-10-16T14:42:11;9.10;;;4.83;;
1276;SDS011;631;51.024;13.826;2022-10-16T14:44:42;6.80;;;6.20;;
1276;SDS011;631;51.024;13.826;2022-10-16T14:47:08;8.80;;;7.90;;
1276;SDS011;631;51.024;13.826;2022-10-16T14:49:37;8.90;;;8.20;;
1276;SDS011;631;51.024;13.826;2022-10-16T14:52:07;6.70;;;6.10;;
1276;SDS011;631;51.024;13.826;2022-10-16T14:54:35;5.50;;;5.00;;
1276;SDS011;631;51.024;13.826;2022-10-16T14:57:00;3.50;;;3.23;;
1276;SDS011;631;51.024;13.826;2022-10-16T14:59:31;3.47;;;3.17;;
1276;SDS011;631;51.024;13.826;2022-10-16T15:02:47;3.30;;;3.00;;
1276;SDS011;631;51.024;13.826;2022-10-16T15:04:54;3.10;;;2.90;;
1276;SDS011;631;51.024;13.826;2022-10-16T15:07:20;3.43;;;3.20;;
1276;SDS011;631;51.024;13.826;2022-10-16T15:09:46;4.13;;;3.73;;
1276;SDS011;631;51.024;13.826;2022-10-16T15:12:12;3.80;;;3.40;;
1276;SDS011;631;51.024;13.826;2022-10-16T15:14:37;3.50;;;3.30;;
1276;SDS011;631;51.024;13.826;2022-10-16T15:17:03;3.30;;;3.10;;
1276;SDS011;631;51.024;13.826;2022-10-16T15:19:29;3.50;;;3.30;;
1276;SDS011;631;51.024;13.826;2022-10-16T15:21:55;3.73;;;3.20;;
1276;SDS011;631;51.024;13.826;2022-10-16T15:24:20;3.40;;;3.20;;
1276;SDS011;631;51.024;13.826;2022-10-16T15:26:46;4.17;;;3.10;;
1276;SDS011;631;51.024;13.826;2022-10-16T15:29:12;3.90;;;3.60;;
1276;SDS011;631;51.024;13.826;2022-10-16T15:31:38;4.93;;;3.17;;
1276;SDS011;631;51.024;13.826;2022-10-16T15:34:03;3.20;;;3.00;;
1276;SDS011;631;51.024;13.826;2022-10-16T15:36:35;3.50;;;3.20;;
1276;SDS011;631;51.024;13.826;2022-10-16T15:39:22;3.63;;;3.30;;
1276;SDS011;631;51.024;13.826;2022-10-16T15:41:47;3.80;;;3.60;;
1276;SDS011;631;51.024;13.826;2022-10-16T15:44:18;4.47;;;4.17;;
1276;SDS011;631;51.024;13.826;2022-10-16T15:46:44;3.60;;;3.30;;
1276;SDS011;631;51.024;13.826;2022-10-16T15:49:10;5.00;;;4.30;;
1276;SDS011;631;51.024;13.826;2022-10-16T15:51:40;5.07;;;4.67;;
1276;SDS011;631;51.024;13.826;2022-10-16T15:54:06;5.73;;;5.33;;
1276;SDS011;631;51.024;13.826;2022-10-16T15:56:32;5.47;;;5.03;;
1276;SDS011;631;51.024;13.826;2022-10-16T15:59:01;5.20;;;4.80;;
1276;SDS011;631;51.024;13.826;2022-10-16T16:01:27;5.20;;;4.80;;
1276;SDS011;631;51.024;13.826;2022-10-16T16:03:54;4.93;;;4.60;;
1276;SDS011;631;51.024;13.826;2022-10-16T16:06:21;4.90;;;4.50;;
1276;SDS011;631;51.024;13.826;2022-10-16T16:08:48;5.30;;;4.90;;
1276;SDS011;631;51.024;13.826;2022-10-16T16:11:15;5.70;;;5.20;;
1276;SDS011;631;51.024;13.826;2022-10-16T16:13:43;6.40;;;5.80;;
1276;SDS011;631;51.024;13.826;2022-10-16T16:16:10;5.47;;;5.07;;
1276;SDS011;631;51.024;13.826;2022-10-16T16:18:38;5.80;;;5.30;;
1276;SDS011;631;51.024;13.826;2022-10-16T16:21:04;5.73;;;5.33;;
1276;SDS011;631;51.024;13.826;2022-10-16T16:23:30;6.80;;;5.80;;
1276;SDS011;631;51.024;13.826;2022-10-16T16:26:02;6.33;;;5.57;;
1276;SDS011;631;51.024;13.826;2022-10-16T16:28:28;8.27;;;7.50;;
1276;SDS011;631;51.024;13.826;2022-10-16T16:30:53;7.87;;;7.27;;
1276;SDS011;631;51.024;13.826;2022-10-16T16:33:19;8.80;;;8.00;;
1276;SDS011;631;51.024;13.826;2022-10-16T16:35:44;9.20;;;7.47;;
1276;SDS011;631;51.024;13.826;2022-10-16T16:38:10;8.73;;;7.93;;
1276;SDS011;631;51.024;13.826;2022-10-16T16:40:35;8.60;;;7.50;;
1276;SDS011;631;51.024;13.826;2022-10-16T16:43:01;8.70;;;7.80;;
1276;SDS011;631;51.024;13.826;2022-10-16T16:45:27;8.60;;;7.60;;
1276;SDS011;631;51.024;13.826;2022-10-16T16:47:53;9.03;;;8.13;;
1276;SDS011;631;51.024;13.826;2022-10-16T16:50:18;52.93;;;47.83;;
1276;SDS011;631;51.024;13.826;2022-10-16T16:52:44;19.00;;;17.30;;
1276;SDS011;631;51.024;13.826;2022-10-16T16:55:09;11.90;;;10.87;;
1276;SDS011;631;51.024;13.826;2022-10-16T16:57:35;9.77;;;8.77;;
1276;SDS011;631;51.024;13.826;2022-10-16T17:00:00;10.30;;;9.50;;
1276;SDS011;631;51.024;13.826;2022-10-16T17:02:26;9.83;;;8.93;;
1276;SDS011;631;51.024;13.826;2022-10-16T17:04:52;9.67;;;8.67;;
1276;SDS011;631;51.024;13.826;2022-10-16T17:07:18;11.13;;;10.13;;
1276;SDS011;631;51.024;13.826;2022-10-16T17:09:43;11.23;;;10.13;;
1276;SDS011;631;51.024;13.826;2022-10-16T17:12:09;10.97;;;9.83;;